Pa Furnace, Pennsylvania
Current Conditions -  °F | °C
As of 7:53 PM on Friday 19 Dec 2014 (Local Time) from KUNV Reporting Station
Broken Clouds Broken Clouds  
Wind Chill: 17°   Ceiling: 3100
Heat Index: 28°   Visibility: 10mi
Dew Point: 19°   Wind: 14mph
Humidity: 69%   Direction: 320°NW
Pressure: 30.19"   Gusts: NA
Location:  40.7134°N, 77.9879°W
Report Text: KUNV 200053Z 32012KT 10SM BKN031 M02/M07 A3019
Loading
Personal Weather Stations






























Interactive Weather Map New forecast layout! Learn more

10-Day Weather Forecast

Advertisements
Track Severe Weather on mobile